createdAt,value
2023-03-07T00:08:37.250Z,51.998
2023-03-07T00:23:40.097Z,52.654
2023-03-07T00:38:42.612Z,53.085
2023-03-07T00:53:45.630Z,54.898
2023-03-07T01:08:48.401Z,55.375
2023-03-07T01:23:52.065Z,52.933
2023-03-07T01:38:55.144Z,53.755
2023-03-07T01:53:57.640Z,53.534
2023-03-07T02:09:00.429Z,54.223
2023-03-07T02:24:03.403Z,54.958
2023-03-07T02:39:05.916Z,55.273
2023-03-07T02:54:08.648Z,56.003
2023-03-07T03:09:11.034Z,56.122
2023-03-07T03:24:13.850Z,56.372
2023-03-07T03:39:16.585Z,58.745
2023-03-07T03:54:19.259Z,58.322
2023-03-07T04:09:22.102Z,58.795
2023-03-07T04:24:24.828Z,58.889
2023-03-07T04:39:27.238Z,57.633
2023-03-07T04:54:29.588Z,59.288
2023-03-07T05:09:31.919Z,58.139
2023-03-07T05:24:34.207Z,58.879
2023-03-07T05:39:36.532Z,58.608
2023-03-07T05:54:38.864Z,57.571
2023-03-07T06:09:41.213Z,58.98
2023-03-07T06:24:43.586Z,58.376
2023-03-07T06:39:45.980Z,60.879
2023-03-07T06:54:48.375Z,58.745
2023-03-07T07:09:50.668Z,58.988
2023-03-07T07:24:52.956Z,58.639
2023-03-07T07:39:55.404Z,60.452
2023-03-07T07:54:57.691Z,58.849
2023-03-07T08:09:59.960Z,58.91
2023-03-07T08:25:02.302Z,59.193
2023-03-07T08:40:04.661Z,59.552
2023-03-07T08:55:06.931Z,61.011
2023-03-07T09:10:09.235Z,60.947
2023-03-07T09:25:11.712Z,58.952
2023-03-07T09:40:14.035Z,59.178
2023-03-07T09:55:16.385Z,59.648
2023-03-07T10:10:18.658Z,59.632
2023-03-07T10:25:20.940Z,59.804
2023-03-07T10:40:23.258Z,59.757
2023-03-07T10:55:25.576Z,59.266
2023-03-07T11:10:27.951Z,59.007
2023-03-07T11:25:30.290Z,60.188
2023-03-07T11:40:32.754Z,59.453
2023-03-07T11:55:36.105Z,59.715
2023-03-07T12:10:38.484Z,59.365
2023-03-07T12:25:40.865Z,59.074
2023-03-07T12:40:43.148Z,60.578
2023-03-07T12:55:45.458Z,61.6
2023-03-07T13:10:47.862Z,61.341
2023-03-07T13:25:50.178Z,60.592
2023-03-07T13:40:52.485Z,59.962
2023-03-07T13:55:54.839Z,60.636
2023-03-07T14:10:57.185Z,60.854
2023-03-07T14:25:59.490Z,60.97
2023-03-07T14:41:01.811Z,62.157
2023-03-07T14:56:04.281Z,61.954
2023-03-07T15:11:06.595Z,61.823
2023-03-07T15:26:08.900Z,61.309
2023-03-07T15:41:11.221Z,61.395
2023-03-07T15:56:13.556Z,61.017
2023-03-07T16:11:15.910Z,59.813
2023-03-07T16:26:18.271Z,59.355
2023-03-07T16:41:20.649Z,57.932
2023-03-07T16:56:22.991Z,55.873
2023-03-07T17:11:25.494Z,57.142
2023-03-07T17:26:27.826Z,57.399
2023-03-07T17:41:30.178Z,56.587
2023-03-07T17:56:32.495Z,56.226
2023-03-07T18:11:34.896Z,55.486
2023-03-07T18:26:37.203Z,55.664
2023-03-07T18:41:39.519Z,53.443
2023-03-07T18:56:41.878Z,53.447
2023-03-07T19:11:44.461Z,53.906
2023-03-07T19:26:46.763Z,53.127
2023-03-07T19:41:49.135Z,52.86
2023-03-07T19:56:51.564Z,52.637
2023-03-07T20:11:53.875Z,47.676
2023-03-07T20:26:56.176Z,50.817
2023-03-07T20:41:58.544Z,50.007
2023-03-07T20:57:00.865Z,49.85
2023-03-07T21:12:03.157Z,49.5
2023-03-07T21:27:05.494Z,48.147
2023-03-07T21:42:07.772Z,48.041
2023-03-07T21:57:10.137Z,49.811
2023-03-07T22:12:12.491Z,48.71
2023-03-07T22:27:14.784Z,48.408
2023-03-07T22:42:17.100Z,47.708
2023-03-07T22:57:19.377Z,48.361
2023-03-07T23:12:21.875Z,50.065
2023-03-07T23:27:24.230Z,46.323
2023-03-07T23:42:26.544Z,49.293
2023-03-07T23:57:28.943Z,50.8
